Time;durP1;ratioP1;P1;durP2;ratioP2;P2;SDS_P1;SDS_P2;PMS_P1;PMS_P2;Temp;Humidity;BMP_temperature;BMP_pressure;BME280_temperature;BME280_humidity;BME280_pressure;Samples;Min_cycle;Max_cycle;Signal;HPM_P1;HPM_P2
2024/01/26 00:00:13;;;;;;;4.03;1.60;;;15.40;73.00;;;;;;5018419;28;20112;-78
2024/01/26 00:02:43;;;;;;;5.65;2.10;;;15.40;73.00;;;;;;5035940;28;20045;-78
2024/01/26 00:05:09;;;;;;;2.88;1.55;;;15.40;73.10;;;;;;5038983;28;20407;-78
2024/01/26 00:07:35;;;;;;;3.83;1.20;;;15.40;73.10;;;;;;5001663;28;20033;-79
2024/01/26 00:10:02;;;;;;;4.50;2.28;;;15.40;73.20;;;;;;5034364;28;20448;-77
2024/01/26 00:12:30;;;;;;;4.20;1.48;;;15.40;73.20;;;;;;5022043;28;20029;-78
2024/01/26 00:14:56;;;;;;;2.95;1.65;;;15.30;73.10;;;;;;5039416;28;20021;-78
2024/01/26 00:17:22;;;;;;;2.45;1.70;;;15.30;73.10;;;;;;5020272;28;20029;-77
2024/01/26 00:19:48;;;;;;;2.10;1.30;;;15.40;73.30;;;;;;5021293;28;20032;-77
2024/01/26 00:22:15;;;;;;;3.38;1.42;;;15.30;73.20;;;;;;5018763;28;20029;-78
2024/01/26 00:24:41;;;;;;;3.25;1.05;;;15.30;73.20;;;;;;5036556;28;20040;-77
2024/01/26 00:27:07;;;;;;;1.75;1.15;;;15.30;73.30;;;;;;5037641;28;20451;-76
2024/01/26 00:29:33;;;;;;;3.90;1.30;;;15.30;73.30;;;;;;5020154;28;20358;-77
2024/01/26 00:31:59;;;;;;;2.78;1.38;;;15.20;73.20;;;;;;5000641;28;20033;-79
2024/01/26 00:34:24;;;;;;;2.45;0.95;;;15.30;73.40;;;;;;5037479;28;20037;-77
2024/01/26 00:36:50;;;;;;;2.00;1.00;;;15.30;73.40;;;;;;5037610;28;20078;-78
2024/01/26 00:39:16;;;;;;;2.83;1.20;;;15.30;73.50;;;;;;5038259;28;20709;-78
2024/01/26 00:41:42;;;;;;;2.20;1.33;;;15.30;73.50;;;;;;5019712;28;20109;-77
2024/01/26 00:44:08;;;;;;;1.67;1.48;;;15.30;73.50;;;;;;5022381;28;20411;-78
2024/01/26 00:46:36;;;;;;;2.35;0.80;;;15.20;73.40;;;;;;5038815;28;20101;-78
2024/01/26 00:49:02;;;;;;;3.95;1.00;;;15.20;73.50;;;;;;5032643;28;20269;-75
2024/01/26 00:51:28;;;;;;;3.47;1.20;;;15.30;73.60;;;;;;5035405;28;20025;-77
2024/01/26 00:53:54;;;;;;;1.52;1.20;;;15.20;73.50;;;;;;5001281;28;20499;-78
2024/01/26 00:56:21;;;;;;;1.17;0.80;;;15.20;73.50;;;;;;5036715;28;20033;-75
2024/01/26 00:58:47;;;;;;;2.47;1.23;;;15.20;73.50;;;;;;5038062;28;20033;-75
2024/01/26 01:01:13;;;;;;;2.20;0.85;;;15.20;73.60;;;;;;5017551;28;20500;-74
2024/01/26 01:03:39;;;;;;;1.83;0.75;;;15.20;73.60;;;;;;5036796;28;20027;-75
2024/01/26 01:06:05;;;;;;;2.90;0.82;;;15.20;73.70;;;;;;5021321;28;20052;-75
2024/01/26 01:08:32;;;;;;;1.60;0.82;;;15.20;73.70;;;;;;5031700;28;20018;-75
2024/01/26 01:10:58;;;;;;;4.38;0.88;;;15.20;73.70;;;;;;5018181;28;20068;-76
2024/01/26 01:13:25;;;;;;;3.35;0.80;;;15.20;73.70;;;;;;5017244;28;20392;-75
2024/01/26 01:15:51;;;;;;;1.05;0.80;;;15.20;73.70;;;;;;5013346;28;20029;-76
2024/01/26 01:18:17;;;;;;;3.20;1.25;;;15.10;73.60;;;;;;5016162;28;20017;-75
2024/01/26 01:20:43;;;;;;;2.58;1.45;;;15.10;73.60;;;;;;5021758;28;20037;-75
2024/01/26 01:23:09;;;;;;;1.27;0.82;;;15.10;73.70;;;;;;5040711;28;20496;-75
2024/01/26 01:25:36;;;;;;;3.25;0.90;;;15.00;73.50;;;;;;5040592;28;20036;-75
2024/01/26 01:28:03;;;;;;;3.05;1.00;;;15.10;73.70;;;;;;5023263;28;20460;-75
2024/01/26 01:30:29;;;;;;;2.55;1.25;;;15.00;73.50;;;;;;5040235;28;20029;-74
2024/01/26 01:32:56;;;;;;;3.25;1.17;;;15.00;73.50;;;;;;5040963;28;20075;-76
2024/01/26 01:35:22;;;;;;;4.45;1.38;;;15.00;73.60;;;;;;5020672;28;20091;-75
2024/01/26 01:37:48;;;;;;;4.45;1.15;;;14.90;73.30;;;;;;5040748;28;20035;-75
2024/01/26 01:40:15;;;;;;;5.03;1.33;;;14.90;73.30;;;;;;5023441;28;20060;-76
2024/01/26 01:42:41;;;;;;;6.05;1.45;;;14.90;73.40;;;;;;5040388;28;20396;-74
2024/01/26 01:45:15;;;;;;;5.90;1.83;;;14.90;73.30;;;;;;5039237;28;20028;-75
2024/01/26 01:47:44;;;;;;;5.93;1.70;;;14.90;73.30;;;;;;5004707;28;20067;-74
2024/01/26 01:50:11;;;;;;;6.55;2.58;;;14.90;73.30;;;;;;5020800;28;20051;-75
2024/01/26 01:52:43;;;;;;;5.10;1.88;;;14.80;73.10;;;;;;5022703;28;20538;-75
2024/01/26 01:55:11;;;;;;;9.02;1.83;;;14.80;73.10;;;;;;5011316;28;20028;-75
2024/01/26 01:57:40;;;;;;;8.07;2.90;;;14.80;73.10;;;;;;5041231;28;20075;-76
2024/01/26 02:00:15;;;;;;;8.07;1.95;;;14.80;73.10;;;;;;5023653;28;20512;-75
2024/01/26 02:02:44;;;;;;;7.38;1.83;;;14.80;73.10;;;;;;5035230;28;20025;-74
2024/01/26 02:05:14;;;;;;;6.57;2.08;;;14.80;73.10;;;;;;5039624;28;20033;-74
2024/01/26 02:07:46;;;;;;;7.60;2.15;;;14.70;72.90;;;;;;5039530;28;20060;-75
2024/01/26 02:10:12;;;;;;;5.78;2.38;;;14.70;72.90;;;;;;5034482;28;20091;-75
2024/01/26 02:12:38;;;;;;;7.38;2.45;;;14.70;72.90;;;;;;5018483;28;20025;-75
2024/01/26 02:15:07;;;;;;;8.10;2.55;;;14.70;72.90;;;;;;5041824;28;20036;-74
2024/01/26 02:17:33;;;;;;;9.23;2.50;;;14.70;72.90;;;;;;5038674;28;20029;-75
2024/01/26 02:20:00;;;;;;;8.07;1.88;;;14.60;72.80;;;;;;5040022;28;20033;-75
2024/01/26 02:22:26;;;;;;;5.85;1.83;;;14.60;72.80;;;;;;5035534;28;20081;-76
2024/01/26 02:24:55;;;;;;;6.68;2.10;;;14.60;72.90;;;;;;5037854;28;20041;-75
2024/01/26 02:27:23;;;;;;;8.70;3.38;;;14.60;72.90;;;;;;5033839;28;21153;-75
2024/01/26 02:29:49;;;;;;;9.73;2.25;;;14.60;72.90;;;;;;5026850;28;20399;-74
2024/01/26 02:32:15;;;;;;;5.60;1.38;;;14.60;72.90;;;;;;5023123;28;20031;-75
2024/01/26 02:34:42;;;;;;;5.95;1.70;;;14.60;72.90;;;;;;5021171;28;20061;-75
2024/01/26 02:37:11;;;;;;;11.82;3.25;;;14.60;73.00;;;;;;5018026;28;20053;-75
2024/01/26 02:39:38;;;;;;;7.13;1.95;;;14.60;73.00;;;;;;5042384;28;20324;-78
2024/01/26 02:42:05;;;;;;;7.78;2.10;;;14.60;73.00;;;;;;5041206;28;20021;-78
2024/01/26 02:44:32;;;;;;;6.57;1.98;;;14.60;73.00;;;;;;5025804;28;20516;-79
2024/01/26 02:46:59;;;;;;;7.50;1.80;;;14.60;73.00;;;;;;5042420;28;20124;-78
2024/01/26 02:49:25;;;;;;;4.22;1.58;;;14.60;73.10;;;;;;5045833;28;20156;-79
2024/01/26 02:51:51;;;;;;;5.63;1.80;;;14.50;72.90;;;;;;5048062;28;20361;-79
2024/01/26 02:54:18;;;;;;;4.90;2.22;;;14.50;72.90;;;;;;5045092;28;20490;-78
2024/01/26 02:56:44;;;;;;;7.30;2.10;;;14.50;72.90;;;;;;5047134;28;20142;-79
2024/01/26 02:59:10;;;;;;;5.57;2.47;;;14.50;72.90;;;;;;5046119;28;20380;-79
2024/01/26 03:01:36;;;;;;;8.27;2.85;;;14.50;73.00;;;;;;5045160;28;20068;-80
2024/01/26 03:04:02;;;;;;;7.85;2.60;;;14.50;73.00;;;;;;5044682;28;20060;-78
2024/01/26 03:06:28;;;;;;;10.13;2.72;;;14.50;73.00;;;;;;5044555;28;20087;-79
2024/01/26 03:08:54;;;;;;;7.35;2.45;;;14.50;73.10;;;;;;5024046;28;20484;-78
2024/01/26 03:11:21;;;;;;;9.85;2.80;;;14.50;73.00;;;;;;5012695;28;20060;-78
2024/01/26 03:13:47;;;;;;;8.90;2.67;;;14.50;73.00;;;;;;5047529;28;20033;-79
2024/01/26 03:16:12;;;;;;;9.65;3.33;;;14.50;73.00;;;;;;5046227;28;20087;-78
2024/01/26 03:18:38;;;;;;;11.07;3.08;;;14.40;72.90;;;;;;5029017;28;20103;-79
2024/01/26 03:21:04;;;;;;;14.30;3.40;;;14.40;72.80;;;;;;5046522;28;20032;-77
2024/01/26 03:23:31;;;;;;;13.38;2.90;;;14.40;72.80;;;;;;5006961;28;20025;-79
2024/01/26 03:25:58;;;;;;;13.50;3.10;;;14.40;72.80;;;;;;5009413;28;20036;-79
2024/01/26 03:28:23;;;;;;;15.45;5.05;;;14.40;72.90;;;;;;5046085;28;20053;-78
2024/01/26 03:30:50;;;;;;;11.10;3.60;;;14.30;72.70;;;;;;5042987;28;20062;-77
2024/01/26 03:33:17;;;;;;;15.05;4.40;;;14.30;72.70;;;;;;5042717;28;20446;-78
2024/01/26 03:35:43;;;;;;;13.07;3.42;;;14.30;72.70;;;;;;5026857;28;20523;-78
2024/01/26 03:38:09;;;;;;;12.18;3.97;;;14.30;72.70;;;;;;5020658;28;20025;-77
2024/01/26 03:40:35;;;;;;;14.15;3.42;;;14.20;72.50;;;;;;5028636;28;20029;-77
2024/01/26 03:43:01;;;;;;;13.48;3.10;;;14.20;72.50;;;;;;5039422;28;20083;-77
2024/01/26 03:45:28;;;;;;;14.40;2.92;;;14.20;72.50;;;;;;5020615;28;20028;-78
2024/01/26 03:47:57;;;;;;;12.15;3.00;;;14.10;72.30;;;;;;5014934;28;20196;-77
2024/01/26 03:50:23;;;;;;;13.07;3.45;;;14.10;72.30;;;;;;5052431;28;20125;-76
2024/01/26 03:52:49;;;;;;;11.60;3.13;;;14.10;72.30;;;;;;5015840;28;20044;-77
2024/01/26 03:55:15;;;;;;;14.50;4.13;;;14.00;72.10;;;;;;5023576;28;20095;-77
2024/01/26 03:57:41;;;;;;;13.60;4.05;;;14.00;72.10;;;;;;5054054;28;20134;-77
2024/01/26 04:00:09;;;;;;;10.85;2.60;;;14.00;72.10;;;;;;5049797;28;20044;-77
2024/01/26 04:02:41;;;;;;;12.85;2.60;;;13.90;71.90;;;;;;5058322;28;20046;-77
2024/01/26 04:05:07;;;;;;;11.38;3.38;;;13.90;71.90;;;;;;5050954;28;20033;-77
2024/01/26 04:07:35;;;;;;;11.68;2.60;;;13.90;71.90;;;;;;5053655;28;20028;-77
2024/01/26 04:10:04;;;;;;;12.90;2.60;;;13.90;71.90;;;;;;5044930;28;20060;-77
2024/01/26 04:12:30;;;;;;;10.25;4.70;;;13.80;71.70;;;;;;5051871;28;20021;-77
2024/01/26 04:14:56;;;;;;;16.17;6.28;;;13.80;71.70;;;;;;5053392;28;20025;-77
2024/01/26 04:17:22;;;;;;;10.05;3.35;;;13.80;71.70;;;;;;5057397;28;20029;-76
2024/01/26 04:19:48;;;;;;;11.43;2.60;;;13.70;71.50;;;;;;5015202;28;20043;-78
2024/01/26 04:22:14;;;;;;;12.25;3.40;;;13.70;71.50;;;;;;5024873;28;20033;-77
2024/01/26 04:24:40;;;;;;;13.27;4.30;;;13.70;71.50;;;;;;5027308;28;20079;-78
2024/01/26 04:27:07;;;;;;;12.40;3.85;;;13.70;71.50;;;;;;5022463;28;20261;-77
2024/01/26 04:29:33;;;;;;;10.57;2.53;;;13.60;71.30;;;;;;5013543;28;20045;-77
2024/01/26 04:31:59;;;;;;;8.02;2.60;;;13.60;71.90;;;;;;5025543;28;20083;-76
2024/01/26 04:34:25;;;;;;;10.50;2.63;;;13.50;71.20;;;;;;5048355;28;20032;-77
2024/01/26 04:36:51;;;;;;;8.60;2.28;;;13.50;71.20;;;;;;5023956;28;20034;-79
2024/01/26 04:39:17;;;;;;;7.90;2.72;;;13.50;71.20;;;;;;5023496;28;20255;-76
2024/01/26 04:41:43;;;;;;;9.57;2.47;;;13.40;71.00;;;;;;5024076;28;20043;-77
2024/01/26 04:44:10;;;;;;;7.50;2.67;;;13.40;71.00;;;;;;5039652;28;20025;-76
2024/01/26 04:46:36;;;;;;;9.63;2.63;;;13.40;71.10;;;;;;5047422;28;20399;-78
2024/01/26 04:49:02;;;;;;;8.25;2.78;;;13.30;71.00;;;;;;5047811;28;20025;-76
2024/01/26 04:51:28;;;;;;;10.38;2.75;;;13.30;71.00;;;;;;5050377;28;20113;-78
2024/01/26 04:53:54;;;;;;;8.48;2.10;;;13.20;70.80;;;;;;5053653;28;20083;-77
2024/01/26 04:56:21;;;;;;;7.25;1.90;;;13.20;70.90;;;;;;5056192;28;20074;-76
2024/01/26 04:58:47;;;;;;;6.82;2.97;;;13.10;70.70;;;;;;5027129;28;20068;-79
2024/01/26 05:01:14;;;;;;;4.40;2.08;;;13.10;70.80;;;;;;5048908;28;20056;-77
2024/01/26 05:03:40;;;;;;;6.70;1.75;;;13.00;70.70;;;;;;5019037;28;20025;-77
2024/01/26 05:06:06;;;;;;;5.07;1.70;;;13.00;70.70;;;;;;5047181;28;20033;-76
2024/01/26 05:08:33;;;;;;;4.70;1.40;;;13.00;70.70;;;;;;5051098;28;20502;-77
2024/01/26 05:10:59;;;;;;;6.03;2.08;;;12.90;70.50;;;;;;5019851;28;20029;-75
2024/01/26 05:13:26;;;;;;;7.28;1.42;;;12.80;70.30;;;;;;5017331;28;20520;-75
2024/01/26 05:15:52;;;;;;;7.00;1.70;;;12.80;70.30;;;;;;5044829;28;20429;-77
2024/01/26 05:18:18;;;;;;;4.78;1.15;;;12.80;70.30;;;;;;5021750;28;20033;-75
2024/01/26 05:20:44;;;;;;;5.65;1.70;;;12.70;70.10;;;;;;5044023;28;20028;-77
2024/01/26 05:23:10;;;;;;;6.97;1.88;;;12.70;70.10;;;;;;5038918;28;20037;-76
2024/01/26 05:25:36;;;;;;;6.80;1.73;;;12.70;70.20;;;;;;5020242;28;20116;-77
2024/01/26 05:28:02;;;;;;;6.05;2.78;;;12.60;70.00;;;;;;5035890;28;20404;-77
2024/01/26 05:30:28;;;;;;;5.35;1.73;;;12.60;70.00;;;;;;5040432;28;20033;-77
2024/01/26 05:32:54;;;;;;;4.20;1.00;;;12.50;69.90;;;;;;5039981;28;20488;-77
2024/01/26 05:35:20;;;;;;;4.10;1.10;;;12.50;69.90;;;;;;5046133;28;20036;-76
2024/01/26 05:37:47;;;;;;;4.90;1.30;;;12.40;69.70;;;;;;5037798;28;20056;-77
2024/01/26 05:40:13;;;;;;;5.45;1.10;;;12.40;69.80;;;;;;5025345;28;20291;-75
2024/01/26 05:42:40;;;;;;;3.92;1.17;;;12.40;69.80;;;;;;5043031;28;20021;-76
2024/01/26 05:45:06;;;;;;;3.60;0.98;;;12.30;69.60;;;;;;5021931;28;20056;-77
2024/01/26 05:47:32;;;;;;;5.18;2.25;;;12.20;69.40;;;;;;5018777;28;20067;-77
2024/01/26 05:49:58;;;;;;;4.10;1.10;;;12.20;69.50;;;;;;5041597;28;20152;-78
2024/01/26 05:52:24;;;;;;;5.45;1.20;;;12.20;69.50;;;;;;5032426;28;20517;-76
2024/01/26 05:54:50;;;;;;;5.68;1.30;;;12.10;69.30;;;;;;5017908;28;20545;-76
2024/01/26 05:57:16;;;;;;;2.60;1.10;;;12.10;69.30;;;;;;5036235;28;20033;-78
2024/01/26 05:59:42;;;;;;;3.05;1.08;;;12.00;69.20;;;;;;5018879;28;20876;-78
2024/01/26 06:02:08;;;;;;;1.98;0.88;;;12.00;69.20;;;;;;5032896;28;20033;-77
2024/01/26 06:04:34;;;;;;;4.78;1.48;;;11.90;69.10;;;;;;5038412;28;20515;-78
2024/01/26 06:07:00;;;;;;;4.32;0.80;;;11.90;69.10;;;;;;5036470;28;20076;-78
2024/01/26 06:09:26;;;;;;;3.40;1.25;;;11.80;68.90;;;;;;5038471;28;20443;-76
2024/01/26 06:11:52;;;;;;;4.72;1.58;;;11.80;68.90;;;;;;5043656;28;20447;-78
2024/01/26 06:14:19;;;;;;;3.72;1.10;;;11.80;68.90;;;;;;5040503;28;20132;-76
2024/01/26 06:16:49;;;;;;;6.38;1.10;;;11.80;68.90;;;;;;5037888;28;20032;-78
2024/01/26 06:19:15;;;;;;;2.47;1.00;;;11.70;68.70;;;;;;5036700;28;20083;-78
2024/01/26 06:21:41;;;;;;;3.60;0.90;;;11.60;68.60;;;;;;5039605;28;20487;-77
2024/01/26 06:24:07;;;;;;;5.57;1.50;;;11.60;68.60;;;;;;5039895;28;20028;-76
2024/01/26 06:26:33;;;;;;;4.90;1.50;;;11.60;68.60;;;;;;5022655;28;20511;-78
2024/01/26 06:28:59;;;;;;;3.72;1.10;;;11.50;68.50;;;;;;5013605;28;20025;-79
2024/01/26 06:31:26;;;;;;;5.25;1.50;;;11.40;68.30;;;;;;5028897;28;20099;-75
2024/01/26 06:33:53;;;;;;;4.97;1.80;;;11.40;68.30;;;;;;5046453;28;20538;-76
2024/01/26 06:36:19;;;;;;;3.70;1.10;;;11.40;68.30;;;;;;5020479;28;20040;-77
2024/01/26 06:38:45;;;;;;;2.47;0.85;;;11.30;68.20;;;;;;5033721;28;20038;-77
2024/01/26 06:41:11;;;;;;;3.78;0.90;;;11.30;68.20;;;;;;5038691;28;20017;-77
2024/01/26 06:43:37;;;;;;;3.75;1.00;;;11.30;68.20;;;;;;5024333;28;20039;-81
2024/01/26 06:46:06;;;;;;;5.72;1.92;;;11.20;68.00;;;;;;5027938;28;20089;-80
2024/01/26 06:48:34;;;;;;;10.25;1.50;;;11.20;68.30;;;;;;5003177;28;20042;-78
2024/01/26 06:51:00;;;;;;;3.00;1.00;;;11.20;68.60;;;;;;5019565;28;20072;-77
2024/01/26 06:53:29;;;;;;;54.70;13.73;;;11.20;68.80;;;;;;5025444;28;20029;-79
2024/01/26 06:55:57;;;;;;;26.25;7.28;;;11.20;68.70;;;;;;5024942;28;20123;-78
2024/01/26 06:58:23;;;;;;;17.98;6.43;;;11.20;68.70;;;;;;5020974;28;20389;-77
2024/01/26 07:00:52;;;;;;;17.60;5.20;;;11.20;68.70;;;;;;5037844;28;20560;-79
2024/01/26 07:03:21;;;;;;;13.13;3.20;;;11.20;68.70;;;;;;5031661;28;20028;-79
2024/01/26 07:05:50;;;;;;;13.60;3.75;;;11.20;68.70;;;;;;5030767;28;20040;-79
2024/01/26 07:08:16;;;;;;;12.95;3.30;;;11.20;69.20;;;;;;5031792;28;20035;-79
2024/01/26 07:10:42;;;;;;;11.95;2.95;;;11.30;69.70;;;;;;5009794;28;20503;-78
2024/01/26 07:13:08;;;;;;;11.95;2.88;;;11.30;70.00;;;;;;5020758;28;20025;-78
2024/01/26 07:15:36;;;;;;;13.07;3.28;;;11.40;70.30;;;;;;5018848;28;20516;-78
2024/01/26 07:18:02;;;;;;;13.07;2.83;;;11.40;70.30;;;;;;5015732;28;20637;-76
2024/01/26 07:20:28;;;;;;;11.70;3.45;;;11.40;70.40;;;;;;5041628;28;20036;-77
2024/01/26 07:22:54;;;;;;;6.65;2.63;;;11.40;70.30;;;;;;5038752;28;20074;-78
2024/01/26 07:25:20;;;;;;;11.00;3.05;;;11.40;70.80;;;;;;5022339;28;20037;-77
2024/01/26 07:27:47;;;;;;;7.80;2.45;;;11.30;70.00;;;;;;5009314;28;20021;-78
2024/01/26 07:30:15;;;;;;;8.45;1.85;;;11.30;70.00;;;;;;5034351;28;20037;-79
2024/01/26 07:32:42;;;;;;;6.60;2.10;;;11.30;70.00;;;;;;5041156;28;20048;-78
2024/01/26 07:35:08;;;;;;;11.55;2.10;;;11.20;69.80;;;;;;5047035;28;20060;-77
2024/01/26 07:37:34;;;;;;;13.00;2.80;;;11.20;70.00;;;;;;5017004;28;20029;-78
2024/01/26 07:40:04;;;;;;;9.77;1.90;;;11.20;70.00;;;;;;5040629;28;20120;-76
2024/01/26 07:42:30;;;;;;;5.38;2.03;;;11.10;69.90;;;;;;5047719;28;20137;-78
2024/01/26 07:44:56;;;;;;;9.18;2.05;;;11.10;70.00;;;;;;5040547;28;20025;-77
2024/01/26 07:47:22;;;;;;;8.23;2.22;;;11.10;70.10;;;;;;5012605;28;20397;-78
2024/01/26 07:49:49;;;;;;;10.88;2.17;;;11.10;70.10;;;;;;5037586;28;20431;-78
2024/01/26 07:52:15;;;;;;;10.88;2.50;;;11.10;70.20;;;;;;5027267;28;20028;-78
2024/01/26 07:54:41;;;;;;;8.15;2.45;;;11.10;70.20;;;;;;5040073;28;20044;-79
2024/01/26 07:57:07;;;;;;;7.60;1.80;;;11.10;70.80;;;;;;5030690;28;20017;-78
2024/01/26 07:59:33;;;;;;;10.98;3.42;;;11.10;70.30;;;;;;5020120;28;20140;-79
2024/01/26 08:01:59;;;;;;;5.72;1.63;;;11.10;70.30;;;;;;5015742;28;20126;-78
2024/01/26 08:04:25;;;;;;;7.53;1.52;;;11.10;70.30;;;;;;5038515;28;20099;-79
2024/01/26 08:06:51;;;;;;;6.00;1.98;;;11.00;70.10;;;;;;5034682;28;20033;-79
2024/01/26 08:09:17;;;;;;;8.95;1.77;;;11.00;70.10;;;;;;5035104;28;20439;-78
2024/01/26 08:11:43;;;;;;;6.05;1.33;;;11.00;70.10;;;;;;5035993;28;20496;-80
2024/01/26 08:14:10;;;;;;;5.57;1.52;;;11.00;70.10;;;;;;5032345;28;20029;-78
2024/01/26 08:16:36;;;;;;;5.75;1.95;;;11.00;70.10;;;;;;5036960;28;20209;-80
2024/01/26 08:19:03;;;;;;;5.93;1.60;;;11.00;70.10;;;;;;5024481;28;20303;-78
2024/01/26 08:21:29;;;;;;;10.35;2.20;;;11.00;70.10;;;;;;5032589;28;20657;-78
2024/01/26 08:23:57;;;;;;;6.90;1.85;;;10.90;70.00;;;;;;5002989;28;20197;-78
2024/01/26 08:26:26;;;;;;;6.22;1.50;;;11.00;70.50;;;;;;5019895;28;20460;-77
2024/01/26 08:28:58;;;;;;;10.20;2.40;;;11.00;70.60;;;;;;5040073;28;20029;-78
2024/01/26 08:31:24;;;;;;;5.05;1.92;;;11.00;70.50;;;;;;5031944;28;20112;-79
2024/01/26 08:33:50;;;;;;;3.90;1.20;;;11.00;70.30;;;;;;5044523;28;20147;-78
2024/01/26 08:36:17;;;;;;;7.13;1.42;;;11.00;70.20;;;;;;5029352;28;20025;-79
2024/01/26 08:38:44;;;;;;;7.03;2.03;;;11.00;70.10;;;;;;5013829;28;20477;-79
2024/01/26 08:41:10;;;;;;;5.40;2.17;;;10.90;69.90;;;;;;5035815;28;20021;-78
2024/01/26 08:43:39;;;;;;;8.23;1.98;;;10.90;69.80;;;;;;5028330;28;20029;-80
2024/01/26 08:46:05;;;;;;;10.95;1.63;;;10.90;69.80;;;;;;5035562;28;20500;-79
2024/01/26 08:48:31;;;;;;;6.75;1.75;;;10.90;69.70;;;;;;5020462;28;20025;-79
2024/01/26 08:50:57;;;;;;;4.28;1.23;;;10.90;69.60;;;;;;5031043;28;20300;-79
2024/01/26 08:53:23;;;;;;;7.55;1.83;;;10.80;69.40;;;;;;5029674;28;20025;-79
2024/01/26 08:55:53;;;;;;;3.80;1.73;;;10.80;69.40;;;;;;5037058;28;20033;-78
2024/01/26 08:58:19;;;;;;;6.25;1.60;;;10.80;69.40;;;;;;5038912;28;20032;-79
2024/01/26 09:00:46;;;;;;;9.68;2.47;;;10.80;69.40;;;;;;5019659;28;20344;-79
2024/01/26 09:03:12;;;;;;;6.78;1.10;;;10.80;69.40;;;;;;5037652;28;20052;-78
2024/01/26 09:05:38;;;;;;;8.98;1.67;;;10.80;69.30;;;;;;5038826;28;20036;-79
2024/01/26 09:08:04;;;;;;;9.60;2.03;;;10.80;69.30;;;;;;5021092;28;20037;-78
2024/01/26 09:10:30;;;;;;;7.43;1.88;;;10.80;69.20;;;;;;5037706;28;20052;-78
2024/01/26 09:12:56;;;;;;;5.95;1.40;;;10.80;69.20;;;;;;5038196;28;20440;-77
2024/01/26 09:15:23;;;;;;;5.95;1.75;;;10.80;69.10;;;;;;5029668;28;20033;-78
2024/01/26 09:17:52;;;;;;;5.47;1.15;;;10.80;69.10;;;;;;5028488;28;20040;-78
2024/01/26 09:20:18;;;;;;;8.75;1.55;;;10.80;69.10;;;;;;5036482;28;20410;-77
2024/01/26 09:22:44;;;;;;;7.93;2.22;;;10.80;69.00;;;;;;5023001;28;20060;-78
2024/01/26 09:25:10;;;;;;;7.47;1.55;;;10.80;68.90;;;;;;5017871;28;20542;-77
2024/01/26 09:27:37;;;;;;;12.52;1.80;;;10.80;68.90;;;;;;5013885;28;20324;-77
2024/01/26 09:30:04;;;;;;;6.53;1.38;;;10.80;68.90;;;;;;5011802;28;20048;-77
2024/01/26 09:32:30;;;;;;;6.47;1.40;;;10.80;68.80;;;;;;5033287;28;20029;-78
2024/01/26 09:34:56;;;;;;;5.57;1.85;;;10.80;68.60;;;;;;5034728;28;20038;-78
2024/01/26 09:37:22;;;;;;;6.72;2.20;;;10.90;68.70;;;;;;5010602;28;20124;-78
2024/01/26 09:39:48;;;;;;;9.15;2.03;;;10.80;68.50;;;;;;5021854;28;20037;-79
2024/01/26 09:42:15;;;;;;;7.63;1.88;;;10.80;68.30;;;;;;5042950;28;20039;-78
2024/01/26 09:44:41;;;;;;;3.45;1.25;;;10.90;68.50;;;;;;5036058;28;20199;-78
2024/01/26 09:47:08;;;;;;;8.75;1.98;;;10.90;68.40;;;;;;5035744;28;20579;-78
2024/01/26 09:49:36;;;;;;;6.75;1.50;;;10.90;68.30;;;;;;5042241;28;20250;-77
2024/01/26 09:52:03;;;;;;;8.27;2.08;;;10.90;68.20;;;;;;5026617;28;20252;-78
2024/01/26 09:54:29;;;;;;;7.30;1.83;;;10.90;68.00;;;;;;5032169;28;20033;-78
2024/01/26 09:56:57;;;;;;;6.47;1.88;;;10.90;67.90;;;;;;5037085;28;20036;-78
2024/01/26 09:59:23;;;;;;;7.50;1.38;;;10.90;67.90;;;;;;5034517;28;20044;-78
2024/01/26 10:01:50;;;;;;;6.65;2.03;;;10.90;67.80;;;;;;5020851;28;20037;-78
2024/01/26 10:04:17;;;;;;;7.97;2.47;;;10.90;67.70;;;;;;5043650;28;20086;-79
2024/01/26 10:06:45;;;;;;;4.30;1.92;;;10.90;67.60;;;;;;5039880;28;20097;-80
2024/01/26 10:09:13;;;;;;;6.70;1.77;;;10.90;67.60;;;;;;5021931;28;20033;-79
2024/01/26 10:11:40;;;;;;;7.38;1.83;;;11.00;67.70;;;;;;5041990;28;20075;-78
2024/01/26 10:14:06;;;;;;;7.50;1.92;;;10.90;67.40;;;;;;5033978;28;20228;-81
2024/01/26 10:16:32;;;;;;;12.50;2.80;;;11.00;67.50;;;;;;5039541;28;20037;-79
2024/01/26 10:18:58;;;;;;;7.68;2.17;;;11.00;67.40;;;;;;5040637;28;20071;-79
2024/01/26 10:21:25;;;;;;;6.10;2.38;;;11.00;67.40;;;;;;5041009;28;20047;-78
2024/01/26 10:23:59;;;;;;;8.20;1.95;;;11.00;67.30;;;;;;5015493;28;20018;-78
2024/01/26 10:26:28;;;;;;;7.00;1.65;;;11.00;67.30;;;;;;5037608;28;20037;-79
2024/01/26 10:28:56;;;;;;;7.15;1.98;;;11.00;67.20;;;;;;5042854;28;20047;-79
2024/01/26 10:31:25;;;;;;;6.47;2.58;;;11.10;67.30;;;;;;5022821;28;20095;-79
2024/01/26 10:33:54;;;;;;;7.22;1.98;;;11.10;67.20;;;;;;5003604;28;20033;-79
2024/01/26 10:36:21;;;;;;;9.10;2.22;;;11.10;67.10;;;;;;5013684;28;20034;-78
2024/01/26 10:38:49;;;;;;;13.65;3.65;;;11.10;67.10;;;;;;5016028;28;20072;-78
2024/01/26 10:41:20;;;;;;;10.32;2.42;;;11.20;67.20;;;;;;5009268;28;20108;-78
2024/01/26 10:43:51;;;;;;;6.07;2.30;;;11.20;67.10;;;;;;5035146;28;20052;-77
2024/01/26 10:46:19;;;;;;;6.75;2.60;;;11.20;67.40;;;;;;5039355;28;20032;-78
2024/01/26 10:48:46;;;;;;;10.98;3.03;;;11.30;68.10;;;;;;5034747;28;20047;-79
2024/01/26 10:51:14;;;;;;;7.00;1.80;;;11.40;68.50;;;;;;5042643;28;20041;-77
2024/01/26 10:53:45;;;;;;;9.40;2.35;;;11.60;68.90;;;;;;5004958;28;20029;-79
2024/01/26 10:56:11;;;;;;;6.88;1.83;;;11.80;69.20;;;;;;5022499;28;20044;-78
2024/01/26 10:58:38;;;;;;;7.55;1.73;;;12.00;69.30;;;;;;5038548;28;20044;-78
2024/01/26 11:01:05;;;;;;;7.03;3.13;;;12.20;69.40;;;;;;5039968;28;20033;-78
2024/01/26 11:03:33;;;;;;;6.13;1.80;;;12.40;69.50;;;;;;5042817;28;20044;-78
2024/01/26 11:06:00;;;;;;;8.25;1.60;;;12.50;69.30;;;;;;5040904;28;20131;-78
2024/01/26 11:08:29;;;;;;;5.47;1.83;;;12.70;69.90;;;;;;5035284;28;20033;-78
2024/01/26 11:10:56;;;;;;;6.35;2.22;;;12.80;69.30;;;;;;5036126;28;20036;-77
2024/01/26 11:13:24;;;;;;;6.85;1.73;;;13.00;69.30;;;;;;5023990;28;20063;-77
2024/01/26 11:15:51;;;;;;;7.72;1.77;;;13.10;69.20;;;;;;5028293;28;20041;-79
2024/01/26 11:18:25;;;;;;;6.28;1.45;;;13.20;69.10;;;;;;5031273;28;20047;-76
2024/01/26 11:20:52;;;;;;;4.30;1.80;;;13.30;69.00;;;;;;5035112;28;20308;-78
2024/01/26 11:23:21;;;;;;;4.68;1.92;;;13.40;68.90;;;;;;5015047;28;20060;-77
2024/01/26 11:25:53;;;;;;;6.38;1.70;;;13.50;68.90;;;;;;5042119;28;20866;-77
2024/01/26 11:28:29;;;;;;;5.25;1.63;;;13.60;68.70;;;;;;5040582;28;20031;-76
2024/01/26 11:30:59;;;;;;;6.75;1.95;;;13.70;68.60;;;;;;5027070;28;20045;-78
2024/01/26 11:33:35;;;;;;;6.25;1.75;;;13.80;68.70;;;;;;5044467;28;20033;-78
2024/01/26 11:36:08;;;;;;;4.82;1.30;;;13.90;68.50;;;;;;5031549;28;20119;-77
2024/01/26 11:38:35;;;;;;;6.70;2.20;;;13.90;68.30;;;;;;5014313;28;20575;-76
2024/01/26 11:41:03;;;;;;;8.73;1.80;;;14.00;68.20;;;;;;5042418;28;20044;-76
2024/01/26 11:43:43;;;;;;;4.25;1.90;;;14.10;68.10;;;;;;5042621;28;20451;-74
2024/01/26 11:46:10;;;;;;;5.38;2.35;;;14.10;67.80;;;;;;5035391;28;20435;-77
2024/01/26 11:48:36;;;;;;;5.85;1.90;;;14.20;67.80;;;;;;5038730;28;20045;-78
2024/01/26 11:51:03;;;;;;;4.90;1.80;;;14.30;67.80;;;;;;5029056;28;20617;-77
2024/01/26 11:53:29;;;;;;;5.40;1.67;;;14.30;67.60;;;;;;5001146;28;20036;-78
2024/01/26 11:55:59;;;;;;;3.17;1.45;;;14.40;67.50;;;;;;5031285;28;20037;-77
2024/01/26 11:58:25;;;;;;;5.38;1.75;;;14.40;67.30;;;;;;5038887;28;20319;-78
2024/01/26 12:00:51;;;;;;;5.65;2.00;;;14.50;67.30;;;;;;5019534;28;20065;-78
2024/01/26 12:03:20;;;;;;;5.93;1.85;;;14.50;67.10;;;;;;5038214;28;20176;-77
2024/01/26 12:05:55;;;;;;;6.93;1.98;;;14.60;67.60;;;;;;5032145;28;20036;-77
2024/01/26 12:08:24;;;;;;;7.05;1.65;;;14.60;66.90;;;;;;5036506;28;20090;-77
2024/01/26 12:10:51;;;;;;;2.35;1.33;;;14.70;66.90;;;;;;5011324;28;20103;-78
2024/01/26 12:13:20;;;;;;;5.85;1.98;;;14.70;66.70;;;;;;5022738;28;20170;-77
2024/01/26 12:15:47;;;;;;;4.93;1.38;;;14.80;66.70;;;;;;5035887;28;20033;-77
2024/01/26 12:18:13;;;;;;;5.47;1.20;;;14.80;66.60;;;;;;5036638;28;20056;-77
2024/01/26 12:20:39;;;;;;;6.10;1.65;;;14.90;66.60;;;;;;5034530;28;20035;-78
2024/01/26 12:23:15;;;;;;;3.92;1.70;;;14.90;66.40;;;;;;5037756;28;20033;-78
2024/01/26 12:25:41;;;;;;;5.18;1.65;;;15.00;66.20;;;;;;5036690;28;20511;-78
2024/01/26 12:28:08;;;;;;;6.40;2.25;;;15.00;66.20;;;;;;5038156;28;20384;-77
2024/01/26 12:30:34;;;;;;;4.82;1.52;;;15.10;66.10;;;;;;5002915;28;20056;-77
2024/01/26 12:33:07;;;;;;;5.68;2.08;;;15.10;66.00;;;;;;5025606;28;20040;-77
2024/01/26 12:35:40;;;;;;;8.32;1.95;;;15.20;65.90;;;;;;5039206;28;20033;-78
2024/01/26 12:38:08;;;;;;;5.57;2.22;;;15.20;65.80;;;;;;5011469;28;20033;-78
2024/01/26 12:40:34;;;;;;;5.18;2.45;;;15.30;65.80;;;;;;5024521;28;20240;-77
2024/01/26 12:43:02;;;;;;;6.10;1.98;;;15.30;65.70;;;;;;5028480;28;20046;-77